EGGP

Liverpool John Lennon Airport

Liverpool, United Kingdom

TAF EGGP 191101Z 1912/2012 16006KT 9999 FEW035 PROB30 TEMPO 1920/2003 BKN014

Issued Valid From Valid To
Sep-19 @ 11:01 UTC
(3 hours ago)
Sep-19 @ 12:00 UTC
(2 hours ago)
Sep-20 @ 12:00 UTC
(in 22 hours)
Sep-19 @ 12:00 - Sep-20 @ 12:00
Wind Visibility Clouds
160° at 6 knots
  • Few at 3,500' AGL
Probability 30% Temporary Sep-19 @ 20:00 - Sep-20 @ 03:00
Clouds
  • Broken at 1,400' AGL
Issued Sep-19 @ 11:01 UTC
(3 hours ago)
Valid From Sep-19 @ 12:00 UTC
(2 hours ago)
Valid To Sep-20 @ 12:00 UTC
(in 22 hours)
Sep-19 @ 12:00 - Sep-20 @ 12:00
Wind Visibility
160° at 6 knots 10,000+ meters
Clouds
  • Few at 3,500' AGL
Probability 30% Temporary Sep-19 @ 20:00 - Sep-20 @ 03:00
Clouds
  • Broken at 1,400' AGL